Station Historical Data
Daily Summary for February 24, 2017 Units:  Metric    English   Both
« Previous Day
Next Day »
Daily Weekly Monthly Yearly Custom
  High: Low: Average:
Temperature: 22.4 °C 5.7 °C 11.9 °C
Dew Point: 15.1 °C 3.3 °C 8.5 °C
Humidity: 95% 60% 81%
Wind Speed: 16.1km/h 0km/h 5.3km/h
Wind Gust: 33.8km/h - -
Wind- - ESE
Pressure: 1011.4 hPa 998.9 hPa -
Precipitation: 0 mm    
Historical Graphs
 
 
Tabular Data for February 24, 2017
Time Temperature Dew Point Pressure Wind Wind Speed Wind Gust Humidity Rainfall Rate (Hourly)
00:04 5.9 °C 3.4 °C 1010.7 hPa NNE 6.4 km/h 8 km/h 84% 0 mm
00:09 5.8 °C 3.3 °C 1010.4 hPa ENE 8 km/h 9.7 km/h 84% 0 mm
00:14 5.8 °C 3.3 °C 1010.4 hPa ENE 1.6 km/h 9.7 km/h 84% 0 mm
00:19 5.8 °C 3.5 °C 1010.4 hPa NE 6.4 km/h 8 km/h 85% 0 mm
00:24 5.8 °C 3.5 °C 1010.4 hPa NE 4.8 km/h 8 km/h 85% 0 mm
00:29 5.9 °C 3.6 °C 1010.7 hPa NE 4.8 km/h 8 km/h 85% 0 mm
00:34 5.9 °C 3.4 °C 1010.7 hPa NE 4.8 km/h 8 km/h 84% 0 mm
00:39 5.9 °C 3.4 °C 1010.7 hPa NE 4.8 km/h 6.4 km/h 84% 0 mm
00:44 6 °C 3.5 °C 1010.7 hPa NNE 1.6 km/h 6.4 km/h 84% 0 mm
00:49 6.1 °C 3.6 °C 1010.7 hPa NE 3.2 km/h 8 km/h 84% 0 mm
00:54 6.1 °C 3.6 °C 1010.7 hPa NE 4.8 km/h 6.4 km/h 84% 0 mm
00:59 6.1 °C 3.6 °C 1010.7 hPa NE 8 km/h 9.7 km/h 84% 0 mm
01:04 6.1 °C 3.6 °C 1010.7 hPa NE 4.8 km/h 9.7 km/h 84% 0 mm
01:09 6.1 °C 3.8 °C 1011.1 hPa NNE 4.8 km/h 8 km/h 85% 0 mm
01:14 6.2 °C 3.8 °C 1011.1 hPa NNE 4.8 km/h 8 km/h 85% 0 mm
01:19 6.2 °C 3.7 °C 1011.1 hPa NNE 4.8 km/h 8 km/h 84% 0 mm
01:24 6.2 °C 3.7 °C 1011.4 hPa NNE 4.8 km/h 11.3 km/h 84% 0 mm
01:29 6.2 °C 3.8 °C 1011.4 hPa NNE 4.8 km/h 11.3 km/h 85% 0 mm
01:34 6.2 °C 3.8 °C 1011.1 hPa NNE 4.8 km/h 11.3 km/h 85% 0 mm
01:39 6.2 °C 3.8 °C 1011.4 hPa NE 4.8 km/h 9.7 km/h 85% 0 mm
01:44 6.2 °C 3.9 °C 1011.1 hPa NE 8 km/h 14.5 km/h 85% 0 mm
01:49 6.3 °C 3.8 °C 1011.1 hPa NE 11.3 km/h 22.5 km/h 84% 0 mm
01:54 6.4 °C 3.9 °C 1011.1 hPa NNE 4.8 km/h 16.1 km/h 84% 0 mm
01:59 6.4 °C 3.8 °C 1011.1 hPa NE 6.4 km/h 19.3 km/h 83% 0 mm
02:04 6.4 °C 3.8 °C 1011.1 hPa NNE 6.4 km/h 12.9 km/h 83% 0 mm
02:09 6.4 °C 3.9 °C 1011.1 hPa NE 8 km/h 17.7 km/h 84% 0 mm
02:14 6.3 °C 3.8 °C 1011.1 hPa NE 8 km/h 17.7 km/h 84% 0 mm
02:19 6.3 °C 3.8 °C 1011.1 hPa NE 6.4 km/h 16.1 km/h 84% 0 mm
02:24 6.3 °C 3.8 °C 1010.7 hPa NNE 8 km/h 16.1 km/h 84% 0 mm
02:29 6.2 °C 3.7 °C 1010.7 hPa NNE 6.4 km/h 16.1 km/h 84% 0 mm
02:34 6.2 °C 3.7 °C 1010.4 hPa NE 4.8 km/h 16.1 km/h 84% 0 mm
02:39 6.2 °C 3.7 °C 1010.7 hPa NNE 6.4 km/h 16.1 km/h 84% 0 mm
02:44 6.1 °C 3.6 °C 1010.4 hPa NE 8 km/h 16.1 km/h 84% 0 mm
02:49 6.1 °C 3.6 °C 1010.4 hPa NE 8 km/h 14.5 km/h 84% 0 mm
02:54 6.1 °C 3.7 °C 1010.4 hPa NE 9.7 km/h 17.7 km/h 85% 0 mm
02:59 6.1 °C 3.6 °C 1010 hPa ENE 8 km/h 19.3 km/h 84% 0 mm
03:04 6.1 °C 3.7 °C 1010 hPa ENE 6.4 km/h 16.1 km/h 85% 0 mm
03:09 6.1 °C 3.7 °C 1010 hPa NE 3.2 km/h 16.1 km/h 85% 0 mm
03:14 6.1 °C 3.7 °C 1010.4 hPa NE 6.4 km/h 12.9 km/h 85% 0 mm
03:19 6.1 °C 3.7 °C 1010 hPa NE 6.4 km/h 14.5 km/h 85% 0 mm
03:24 6.1 °C 3.8 °C 1010 hPa NE 8 km/h 14.5 km/h 85% 0 mm
03:29 6.1 °C 3.8 °C 1010 hPa NE 9.7 km/h 14.5 km/h 85% 0 mm
03:34 6.1 °C 3.9 °C 1010 hPa NE 8 km/h 14.5 km/h 86% 0 mm
03:39 6.2 °C 4 °C 1009.7 hPa NE 6.4 km/h 14.5 km/h 86% 0.25 mm
03:44 6.1 °C 3.9 °C 1009.7 hPa NE 6.4 km/h 14.5 km/h 86% 0.25 mm
03:49 6.1 °C 4.1 °C 1009.7 hPa NE 3.2 km/h 12.9 km/h 87% 0.25 mm
03:54 6 °C 4 °C 1009.7 hPa NNE 4.8 km/h 12.9 km/h 87% 0.25 mm
03:59 6 °C 4 °C 1009.4 hPa ENE 14.5 km/h 19.3 km/h 87% 0.25 mm
04:04 5.9 °C 3.9 °C 1009.7 hPa NE 1.6 km/h 14.5 km/h 87% 0.25 mm
04:09 5.9 °C 3.9 °C 1009.7 hPa NE 9.7 km/h 17.7 km/h 87% 0.25 mm
04:14 5.9 °C 4.1 °C 1009.7 hPa NE 6.4 km/h 14.5 km/h 88% 0.25 mm
04:19 5.8 °C 4 °C 1009.7 hPa ENE 4.8 km/h 12.9 km/h 88% 0.25 mm
04:24 5.9 °C 4.1 °C 1009.7 hPa NE 6.4 km/h 12.9 km/h 88% 0.25 mm
04:29 5.9 °C 4.1 °C 1009.7 hPa NE 6.4 km/h 12.9 km/h 88% 0.25 mm
04:34 5.9 °C 4.1 °C 1009.7 hPa NNE 6.4 km/h 12.9 km/h 88% 0.25 mm
04:39 5.9 °C 4.1 °C 1009.7 hPa NNE 4.8 km/h 9.7 km/h 88% 0 mm
04:44 5.9 °C 4.2 °C 1009.7 hPa NNE 4.8 km/h 8 km/h 89% 0 mm
04:49 5.8 °C 4.2 °C 1009.7 hPa NNE 4.8 km/h 9.7 km/h 89% 0 mm
04:54 5.8 °C 4.2 °C 1009.4 hPa NNE 6.4 km/h 11.3 km/h 89% 0 mm
04:59 5.8 °C 4.1 °C 1009 hPa NNE 12.9 km/h 17.7 km/h 89% 0 mm
05:04 5.8 °C 4.1 °C 1009 hPa ENE 12.9 km/h 17.7 km/h 89% 0.25 mm
05:09 5.7 °C 4.1 °C 1009 hPa ESE 4.8 km/h 14.5 km/h 89% 0.25 mm
05:14 5.7 °C 4.1 °C 1009.4 hPa ENE 3.2 km/h 16.1 km/h 89% 0.25 mm
05:19 5.7 °C 4.2 °C 1009.4 hPa NE 8 km/h 12.9 km/h 90% 0.25 mm
05:24 5.7 °C 4.2 °C 1009 hPa ENE 6.4 km/h 16.1 km/h 90% 0.51 mm
05:29 5.7 °C 4.2 °C 1009 hPa NE 8 km/h 16.1 km/h 90% 0.51 mm
05:34 5.7 °C 4.2 °C 1008.7 hPa NE 8 km/h 12.9 km/h 90% 0.76 mm
05:39 5.8 °C 4.3 °C 1008.7 hPa NE 6.4 km/h 12.9 km/h 90% 1.02 mm
05:44 5.8 °C 4.4 °C 1009 hPa NE 6.4 km/h 12.9 km/h 91% 1.27 mm
05:49 5.8 °C 4.4 °C 1009 hPa NNE 4.8 km/h 9.7 km/h 91% 1.52 mm
05:54 5.8 °C 4.4 °C 1009 hPa NNE 4.8 km/h 11.3 km/h 91% 1.78 mm
05:59 5.8 °C 4.4 °C 1009 hPa NE 4.8 km/h 11.3 km/h 91% 2.03 mm
06:04 5.8 °C 4.5 °C 1009 hPa NE 4.8 km/h 11.3 km/h 91% 2.03 mm
06:09 5.8 °C 4.5 °C 1009 hPa ENE 4.8 km/h 9.7 km/h 91% 2.29 mm
06:14 5.9 °C 4.6 °C 1008.7 hPa ENE 4.8 km/h 16.1 km/h 91% 2.79 mm
06:19 5.9 °C 4.7 °C 1008.7 hPa ENE 1.6 km/h 11.3 km/h 92% 3.05 mm
06:24 6.1 °C 4.8 °C 1008.4 hPa ENE 1.6 km/h 11.3 km/h 92% 2.79 mm
06:29 6.1 °C 4.9 °C 1008.4 hPa NNE 6.4 km/h 16.1 km/h 92% 2.79 mm
06:34 6.1 °C 4.9 °C 1008.4 hPa ENE 6.4 km/h 16.1 km/h 92% 2.54 mm
06:39 6.2 °C 4.9 °C 1008.4 hPa ENE 4.8 km/h 12.9 km/h 92% 2.29 mm
06:44 6.3 °C 5.1 °C 1008 hPa East 8 km/h 14.5 km/h 92% 2.29 mm
06:49 6.3 °C 5.1 °C 1008 hPa ENE 11.3 km/h 12.9 km/h 92% 2.03 mm
06:54 6.4 °C 5.2 °C 1008 hPa NE 3.2 km/h 14.5 km/h 92% 1.78 mm
06:59 6.5 °C 5.3 °C 1008 hPa ENE 4.8 km/h 12.9 km/h 92% 1.52 mm
07:04 6.6 °C 5.3 °C 1008 hPa ENE 4.8 km/h 12.9 km/h 92% 1.27 mm
07:09 6.6 °C 5.4 °C 1008 hPa ENE 4.8 km/h 11.3 km/h 92% 1.27 mm
07:14 6.7 °C 5.4 °C 1008 hPa ENE 4.8 km/h 11.3 km/h 92% 0.76 mm
07:19 6.7 °C 5.5 °C 1008 hPa NE 1.6 km/h 11.3 km/h 92% 1.02 mm
07:24 6.8 °C 5.6 °C 1008 hPa NE 4.8 km/h 11.3 km/h 92% 1.02 mm
07:29 6.9 °C 5.8 °C 1008 hPa ENE 1.6 km/h 8 km/h 93% 1.27 mm
07:34 6.9 °C 5.9 °C 1007.7 hPa East 3.2 km/h 4.8 km/h 93% 1.27 mm
07:39 6.9 °C 5.9 °C 1007.7 hPa ENE 3.2 km/h 8 km/h 93% 1.27 mm
07:44 7.1 °C 6 °C 1007.7 hPa ENE 3.2 km/h 9.7 km/h 93% 1.02 mm
07:49 7.1 °C 6.1 °C 1007.7 hPa ENE 4.8 km/h 9.7 km/h 93% 1.02 mm
07:54 7.2 °C 6.2 °C 1007.7 hPa ENE 4.8 km/h 9.7 km/h 93% 1.02 mm
07:59 7.3 °C 6.2 °C 1007.7 hPa ENE 4.8 km/h 9.7 km/h 93% 1.02 mm
08:04 7.3 °C 6.3 °C 1007.7 hPa ENE 1.6 km/h 8 km/h 93% 1.02 mm
08:09 7.4 °C 6.3 °C 1007.7 hPa NE 6.4 km/h 8 km/h 93% 0.76 mm
08:14 7.4 °C 6.4 °C 1008 hPa NE 3.2 km/h 8 km/h 93% 0.76 mm
08:19 7.5 °C 6.4 °C 1007.7 hPa NE 3.2 km/h 6.4 km/h 93% 0.25 mm
08:24 7.6 °C 6.5 °C 1008 hPa SE 3.2 km/h 4.8 km/h 93% 0.25 mm
08:29 7.6 °C 6.6 °C 1008 hPa East 1.6 km/h 9.7 km/h 93% 0 mm
08:34 7.6 °C 6.6 °C 1007.7 hPa ENE 3.2 km/h 4.8 km/h 93% 0.25 mm
08:39 7.7 °C 6.6 °C 1007.7 hPa Calm   4.8 km/h 93% 0.25 mm
08:44 7.7 °C 6.6 °C 1008 hPa ENE 1.6 km/h 8 km/h 93% 0.51 mm
08:49 7.7 °C 6.7 °C 1008 hPa East 1.6 km/h 8 km/h 93% 0.51 mm
08:54 7.8 °C 6.7 °C 1008 hPa ENE 1.6 km/h 3.2 km/h 93% 0.76 mm
08:59 7.9 °C 6.8 °C 1008 hPa Calm     93% 1.02 mm
09:04 7.9 °C 6.9 °C 1008 hPa Calm     93% 1.27 mm
09:09 7.9 °C 6.9 °C 1007.7 hPa Calm     93% 1.52 mm
09:14 8 °C 6.9 °C 1007.3 hPa ENE 1.6 km/h 8 km/h 93% 1.52 mm
09:19 8.1 °C 7.2 °C 1007.3 hPa East 3.2 km/h 8 km/h 94% 1.78 mm
09:24 8.1 °C 7.2 °C 1007.3 hPa ESE 3.2 km/h 6.4 km/h 94% 1.78 mm
09:29 8.3 °C 7.4 °C 1007 hPa East 3.2 km/h 8 km/h 94% 1.78 mm
09:34 8.4 °C 7.5 °C 1007 hPa ESE 3.2 km/h 6.4 km/h 94% 1.52 mm
09:39 8.6 °C 7.7 °C 1007 hPa East 1.6 km/h 8 km/h 94% 1.52 mm
09:44 8.9 °C 8 °C 1006.7 hPa Calm   3.2 km/h 94% 1.27 mm
09:49 9.2 °C 8.3 °C 1006.7 hPa Calm   3.2 km/h 94% 1.27 mm
09:54 9.6 °C 8.8 °C 1006.3 hPa Calm     95% 1.02 mm
09:59 10.1 °C 9.3 °C 1006.3 hPa Calm     95% 0.76 mm
10:04 10.6 °C 9.8 °C 1006.3 hPa Calm     95% 0.51 mm
10:09 11 °C 10.2 °C 1006.3 hPa Calm   8 km/h 95% 0.25 mm
10:14 11.4 °C 10.7 °C 1006 hPa Calm     95% 0.25 mm
10:19 11.9 °C 10.9 °C 1006 hPa Calm     94% 0 mm
10:24 12.6 °C 11.6 °C 1006 hPa Calm   3.2 km/h 94% 0 mm
10:29 12.9 °C 12 °C 1006 hPa SE 1.6 km/h 4.8 km/h 94% 0 mm
10:34 13.5 °C 12.6 °C 1006 hPa Calm   4.8 km/h 94% 0 mm
10:39 14.8 °C 13.7 °C 1005.6 hPa SSE 1.6 km/h 4.8 km/h 93% 0 mm
10:44 15.6 °C 13.9 °C 1005.6 hPa South 1.6 km/h 8 km/h 90% 0 mm
10:49 16.3 °C 14.2 °C 1005.6 hPa South 4.8 km/h 9.7 km/h 87% 0 mm
10:54 17.3 °C 14.4 °C 1005.6 hPa SSW 6.4 km/h 16.1 km/h 83% 0 mm
10:59 17.4 °C 13.9 °C 1005.3 hPa SSW 6.4 km/h 16.1 km/h 80% 0 mm
11:04 17.7 °C 13.8 °C 1005.3 hPa South 9.7 km/h 17.7 km/h 78% 0 mm
11:09 18.3 °C 14.4 °C 1005.3 hPa South 9.7 km/h 22.5 km/h 78% 0 mm
11:14 18.6 °C 14.3 °C 1005.3 hPa South 9.7 km/h 22.5 km/h 76% 0 mm
11:19 18.7 °C 14.2 °C 1005.3 hPa South 9.7 km/h 19.3 km/h 75% 0 mm
11:24 19.1 °C 14.4 °C 1005.3 hPa South 9.7 km/h 20.9 km/h 74% 0 mm
11:29 19.4 °C 14.5 °C 1005.3 hPa South 8 km/h 20.9 km/h 73% 0 mm
11:34 19.9 °C 14.7 °C 1005.3 hPa SSW 9.7 km/h 14.5 km/h 72% 0 mm
11:39 20.1 °C 14.7 °C 1005 hPa South 6.4 km/h 11.3 km/h 71% 0 mm
11:44 20.2 °C 14.5 °C 1005.3 hPa SSE 4.8 km/h 12.9 km/h 70% 0 mm
11:49 20.3 °C 14.6 °C 1005 hPa South 3.2 km/h 14.5 km/h 70% 0 mm
11:54 20.3 °C 14.4 °C 1005 hPa SSW 11.3 km/h 14.5 km/h 69% 0 mm
11:59 20.7 °C 14.8 °C 1005 hPa SSW 8 km/h 14.5 km/h 69% 0 mm
12:04 20.8 °C 14.5 °C 1005 hPa SSW 8 km/h 17.7 km/h 67% 0 mm
12:09 21.1 °C 14.5 °C 1005 hPa SW 9.7 km/h 17.7 km/h 66% 0 mm
12:14 21.1 °C 14.5 °C 1005 hPa SW 11.3 km/h 19.3 km/h 66% 0 mm
12:19 21.3 °C 14.2 °C 1004.6 hPa SW 11.3 km/h 24.1 km/h 64% 0 mm
12:24 21.7 °C 15.1 °C 1004.6 hPa SSW 9.7 km/h 24.1 km/h 66% 0 mm
12:29 21.6 °C 14.4 °C 1004.6 hPa SSW 9.7 km/h 22.5 km/h 64% 0 mm
12:34 22.1 °C 15 °C 1004.3 hPa South 9.7 km/h 19.3 km/h 64% 0 mm
12:39 22.1 °C 14.5 °C 1004.3 hPa SSW 9.7 km/h 19.3 km/h 62% 0 mm
12:44 21.9 °C 14.6 °C 1004.3 hPa SSE 9.7 km/h 25.7 km/h 63% 0 mm
12:49 22 °C 14.6 °C 1004.3 hPa SW 9.7 km/h 20.9 km/h 63% 0 mm
12:54 21.8 °C 14.2 °C 1004.3 hPa SW 16.1 km/h 22.5 km/h 62% 0 mm
12:59 22 °C 14.4 °C 1003.9 hPa SW 12.9 km/h 30.6 km/h 62% 0 mm
13:04 22.4 °C 14.5 °C 1003.9 hPa SW 11.3 km/h 30.6 km/h 61% 0 mm
13:09 22.1 °C 14 °C 1003.9 hPa SW 11.3 km/h 22.5 km/h 60% 0 mm
13:14 22 °C 14.1 °C 1003.9 hPa SW 11.3 km/h 24.1 km/h 61% 0 mm
13:19 21.6 °C 13.8 °C 1003.9 hPa SW 11.3 km/h 24.1 km/h 61% 0 mm
13:24 21.3 °C 13.8 °C 1003.9 hPa WSW 11.3 km/h 22.5 km/h 62% 0 mm
13:29 20.9 °C 13.4 °C 1003.9 hPa SW 12.9 km/h 22.5 km/h 62% 0 mm
13:34 20.9 °C 13.6 °C 1003.9 hPa WSW 11.3 km/h 22.5 km/h 63% 0 mm
13:39 21.3 °C 13.7 °C 1003.6 hPa SW 6.4 km/h 19.3 km/h 62% 0 mm
13:44 22.1 °C 14.5 °C 1003.6 hPa WSW 9.7 km/h 14.5 km/h 62% 0 mm
13:49 21.7 °C 13.6 °C 1003.6 hPa WNW 11.3 km/h 22.5 km/h 60% 0 mm
13:54 21.1 °C 13.5 °C 1003.6 hPa South 11.3 km/h 22.5 km/h 62% 0 mm
13:59 20.9 °C 13.6 °C 1003.3 hPa SW 8 km/h 16.1 km/h 63% 0 mm
14:04 20.7 °C 13.4 °C 1003.3 hPa SW 8 km/h 16.1 km/h 63% 0 mm
14:09 20.3 °C 13.2 °C 1003.3 hPa SW 8 km/h 19.3 km/h 64% 0 mm
14:14 19.9 °C 13.2 °C 1003.3 hPa SW 8 km/h 19.3 km/h 65% 0 mm
14:19 19.8 °C 12.8 °C 1003.3 hPa SW 8 km/h 16.1 km/h 64% 0 mm
14:24 20.1 °C 13.1 °C 1003.3 hPa South 4.8 km/h 14.5 km/h 64% 0 mm
14:29 19.8 °C 13.1 °C 1003.3 hPa SW 4.8 km/h 16.1 km/h 65% 0 mm
14:34 19.8 °C 13 °C 1002.9 hPa SW 6.4 km/h 16.1 km/h 65% 0 mm
14:39 19.8 °C 13 °C 1003.3 hPa SSW 4.8 km/h 11.3 km/h 65% 0 mm
14:44 19.4 °C 12.7 °C 1003.3 hPa SSW 6.4 km/h 16.1 km/h 65% 0 mm
14:49 19.4 °C 12.9 °C 1003.3 hPa SW 6.4 km/h 16.1 km/h 66% 0 mm
14:54 19.3 °C 12.6 °C 1003.3 hPa WSW 6.4 km/h 11.3 km/h 65% 0 mm
14:59 19.1 °C 12.6 °C 1003.3 hPa SSW 4.8 km/h 11.3 km/h 66% 0 mm
15:04 19.2 °C 12.9 °C 1003.3 hPa West 4.8 km/h 9.7 km/h 67% 0 mm
15:09 19.5 °C 12.7 °C 1003.3 hPa WSW 4.8 km/h 9.7 km/h 65% 0 mm
15:14 19.8 °C 12.8 °C 1003.3 hPa WSW 4.8 km/h 11.3 km/h 64% 0 mm
15:19 20.1 °C 12.8 °C 1003.3 hPa West 3.2 km/h 8 km/h 63% 0 mm
15:24 20.1 °C 12.8 °C 1002.9 hPa SW 1.6 km/h 11.3 km/h 63% 0 mm
15:29 20 °C 13 °C 1003.3 hPa West 6.4 km/h 9.7 km/h 64% 0 mm
15:34 19.9 °C 12.9 °C 1002.9 hPa WNW 3.2 km/h 8 km/h 64% 0 mm
15:39 20.3 °C 13 °C 1002.9 hPa NW 3.2 km/h 6.4 km/h 63% 0 mm
15:44 20.2 °C 12.7 °C 1002.9 hPa WNW 4.8 km/h 11.3 km/h 62% 0 mm
15:49 20.3 °C 12.8 °C 1002.9 hPa West 4.8 km/h 11.3 km/h 62% 0 mm
15:54 20.4 °C 12.6 °C 1002.9 hPa West 6.4 km/h 11.3 km/h 61% 0 mm
15:59 20.4 °C 12.7 °C 1002.9 hPa WSW 4.8 km/h 9.7 km/h 61% 0 mm
16:04 20.4 °C 12.4 °C 1002.6 hPa SW 1.6 km/h 9.7 km/h 60% 0 mm
16:09 20.2 °C 12.4 °C 1002.6 hPa WSW 1.6 km/h 4.8 km/h 61% 0 mm
16:14 20.1 °C 13.3 °C 1002.6 hPa WNW 3.2 km/h 6.4 km/h 65% 0 mm
16:19 19.1 °C 12.8 °C 1002.6 hPa North 4.8 km/h 14.5 km/h 67% 0 mm
16:24 18.2 °C 12.2 °C 1002.6 hPa NE 9.7 km/h 9.7 km/h 68% 0 mm
16:29 17.8 °C 12.1 °C 1002.6 hPa NNE 4.8 km/h 11.3 km/h 69% 0 mm
16:34 17.7 °C 12.1 °C 1002.6 hPa NNE 3.2 km/h 6.4 km/h 70% 0 mm
16:39 17.7 °C 12.1 °C 1002.6 hPa NE 4.8 km/h 11.3 km/h 70% 0 mm
16:44 17.3 °C 11.8 °C 1002.6 hPa ENE 8 km/h 12.9 km/h 70% 0 mm
16:49 16.9 °C 11.6 °C 1002.6 hPa NE 6.4 km/h 12.9 km/h 71% 0 mm
16:54 16.6 °C 11.6 °C 1002.6 hPa NE 6.4 km/h 14.5 km/h 72% 0 mm
16:59 16.3 °C 11.4 °C 1002.6 hPa NE 6.4 km/h 14.5 km/h 73% 0 mm
17:04 16.1 °C 11.2 °C 1002.6 hPa NNE 6.4 km/h 11.3 km/h 73% 0 mm
17:09 15.8 °C 10.9 °C 1002.6 hPa NE 11.3 km/h 14.5 km/h 73% 0 mm
17:14 15.3 °C 10.7 °C 1002.6 hPa NE 9.7 km/h 14.5 km/h 74% 0 mm
17:19 14.9 °C 10.6 °C 1002.6 hPa NE 8 km/h 17.7 km/h 75% 0 mm
17:24 14.6 °C 10.4 °C 1002.3 hPa NE 8 km/h 17.7 km/h 76% 0 mm
17:29 14.5 °C 10.3 °C 1002.3 hPa NE 6.4 km/h 14.5 km/h 76% 0 mm
17:34 14.4 °C 10.4 °C 1002.3 hPa NE 8 km/h 9.7 km/h 77% 0 mm
17:39 14.3 °C 10.3 °C 1002.6 hPa North 4.8 km/h 11.3 km/h 77% 0 mm
17:44 14.2 °C 10.2 °C 1002.6 hPa NE 3.2 km/h 11.3 km/h 77% 0 mm
17:49 14 °C 10.1 °C 1002.6 hPa NE 6.4 km/h 11.3 km/h 77% 0 mm
17:54 13.8 °C 10.1 °C 1002.6 hPa NE 6.4 km/h 12.9 km/h 78% 0 mm
17:59 13.7 °C 9.9 °C 1002.9 hPa NE 6.4 km/h 14.5 km/h 78% 0 mm
18:04 13.5 °C 9.7 °C 1002.9 hPa NE 4.8 km/h 14.5 km/h 78% 0 mm
18:09 13.4 °C 9.8 °C 1002.9 hPa NNE 3.2 km/h 6.4 km/h 79% 0 mm
18:14 13.2 °C 9.7 °C 1002.9 hPa NNE 3.2 km/h 4.8 km/h 79% 0 mm
18:19 13.2 °C 9.6 °C 1002.9 hPa NNE 3.2 km/h 4.8 km/h 79% 0 mm
18:24 12.9 °C 9.6 °C 1003.3 hPa NNE 3.2 km/h 4.8 km/h 80% 0 mm
18:29 12.9 °C 9.5 °C 1002.9 hPa NNW 6.4 km/h 6.4 km/h 80% 0 mm
18:34 12.7 °C 9.3 °C 1002.9 hPa NNE 3.2 km/h 6.4 km/h 80% 0 mm
18:39 12.5 °C 9.3 °C 1002.9 hPa North 3.2 km/h 4.8 km/h 81% 0 mm
18:44 12.3 °C 9.2 °C 1003.3 hPa NNW 6.4 km/h 6.4 km/h 81% 0 mm
18:49 12.1 °C 8.9 °C 1003.3 hPa NNW 1.6 km/h 8 km/h 81% 0 mm
18:54 11.8 °C 8.7 °C 1003.3 hPa North 3.2 km/h 8 km/h 81% 0 mm
18:59 11.6 °C 8.7 °C 1003.3 hPa North 4.8 km/h 9.7 km/h 82% 0 mm
19:04 11.5 °C 8.6 °C 1003.6 hPa North 4.8 km/h 9.7 km/h 82% 0 mm
19:09 11.4 °C 8.5 °C 1003.6 hPa NNE 3.2 km/h 8 km/h 82% 0 mm
19:14 11.4 °C 8.6 °C 1003.6 hPa NE 3.2 km/h 12.9 km/h 83% 0 mm
19:19 11.3 °C 8.4 °C 1003.3 hPa North 1.6 km/h 9.7 km/h 82% 0 mm
19:24 11.1 °C 8.2 °C 1003.3 hPa NE 4.8 km/h 9.7 km/h 82% 0 mm
19:29 10.9 °C 8.1 °C 1003.3 hPa NE 4.8 km/h 9.7 km/h 83% 0 mm
19:34 10.7 °C 7.9 °C 1002.9 hPa NNE 6.4 km/h 11.3 km/h 83% 0 mm
19:39 10.4 °C 7.6 °C 1002.9 hPa NE 3.2 km/h 11.3 km/h 83% 0 mm
19:44 10.2 °C 7.6 °C 1002.9 hPa NNE 4.8 km/h 16.1 km/h 84% 0 mm
19:49 10.1 °C 7.6 °C 1002.9 hPa ENE 3.2 km/h 14.5 km/h 84% 0 mm
19:54 10.1 °C 7.5 °C 1002.9 hPa NE 4.8 km/h 14.5 km/h 84% 0 mm
19:59 9.9 °C 7.4 °C 1002.6 hPa ENE 4.8 km/h 9.7 km/h 84% 0 mm
20:04 9.8 °C 7.4 °C 1002.6 hPa ENE 4.8 km/h 9.7 km/h 85% 0 mm
20:09 9.8 °C 7.4 °C 1002.6 hPa ENE 4.8 km/h 9.7 km/h 85% 0 mm
20:14 9.8 °C 7.4 °C 1002.6 hPa ENE 3.2 km/h 9.7 km/h 85% 0 mm
20:19 9.8 °C 7.4 °C 1002.3 hPa ENE 3.2 km/h 4.8 km/h 85% 0 mm
20:24 9.9 °C 7.6 °C 1002.3 hPa NE 1.6 km/h 6.4 km/h 85% 0 mm
20:29 9.9 °C 7.5 °C 1002.3 hPa North 1.6 km/h 4.8 km/h 85% 0 mm
20:34 9.9 °C 7.7 °C 1002.3 hPa Calm   3.2 km/h 86% 0 mm
20:39 10 °C 7.6 °C 1002.3 hPa Calm     85% 0 mm
20:44 10 °C 7.6 °C 1001.9 hPa East 1.6 km/h 8 km/h 85% 0 mm
20:49 9.9 °C 7.6 °C 1001.6 hPa ENE 3.2 km/h 8 km/h 85% 0 mm
20:54 10 °C 7.6 °C 1001.6 hPa ENE 4.8 km/h 8 km/h 85% 0 mm
20:59 9.9 °C 7.6 °C 1001.6 hPa ENE 3.2 km/h 6.4 km/h 85% 0 mm
21:04 10 °C 7.8 °C 1001.2 hPa ENE 1.6 km/h 6.4 km/h 86% 0 mm
21:09 10.1 °C 7.7 °C 1001.2 hPa Calm   4.8 km/h 85% 0 mm
21:14 10.1 °C 7.7 °C 1001.2 hPa NE 1.6 km/h 6.4 km/h 85% 0 mm
21:19 10.1 °C 7.7 °C 1000.9 hPa East 1.6 km/h 6.4 km/h 85% 0 mm
21:24 10.1 °C 7.7 °C 1000.9 hPa ENE 3.2 km/h 6.4 km/h 85% 0 mm
21:29 10.1 °C 7.9 °C 1000.9 hPa Calm   4.8 km/h 86% 0 mm
21:34 10.1 °C 7.7 °C 1000.9 hPa Calm     85% 0 mm
21:39 10.2 °C 7.9 °C 1000.9 hPa Calm     86% 0 mm
21:44 10.2 °C 7.8 °C 1000.6 hPa Calm     85% 0 mm
21:49 10.3 °C 8.1 °C 1000.6 hPa Calm     86% 0 mm
21:54 10.4 °C 8 °C 1000.6 hPa Calm     85% 0 mm
21:59 10.4 °C 8.2 °C 1000.2 hPa Calm     86% 0 mm
22:04 10.4 °C 8.1 °C 1000.2 hPa Calm     85% 0 mm
22:09 10.6 °C 8.4 °C 1000.2 hPa Calm     86% 0 mm
22:14 10.5 °C 8.1 °C 1000.2 hPa Calm     85% 0 mm
22:19 10.6 °C 8.3 °C 999.9 hPa Calm     86% 0 mm
22:24 10.6 °C 8.2 °C 999.9 hPa Calm     85% 0 mm
22:29 10.4 °C 8 °C 999.9 hPa Calm     85% 0 mm
22:34 10.3 °C 8.1 °C 999.9 hPa Calm     86% 0 mm
22:39 10.3 °C 8.1 °C 999.9 hPa Calm     86% 0 mm
22:44 10.4 °C 8.4 °C 999.9 hPa ESE 1.6 km/h 4.8 km/h 87% 0 mm
22:49 11 °C 8.9 °C 999.9 hPa SSE 4.8 km/h 6.4 km/h 87% 0 mm
22:54 12.1 °C 9.4 °C 999.9 hPa South 6.4 km/h 9.7 km/h 84% 0 mm
22:59 13.7 °C 10.1 °C 999.5 hPa South 4.8 km/h 14.5 km/h 79% 0 mm
23:04 15.7 °C 10.7 °C 999.5 hPa South 8 km/h 19.3 km/h 72% 0 mm
23:09 16.9 °C 11.2 °C 999.5 hPa South 6.4 km/h 16.1 km/h 69% 0 mm
23:14 17.6 °C 11.2 °C 999.2 hPa SSE 8 km/h 20.9 km/h 66% 0 mm
23:19 17.9 °C 11.3 °C 999.2 hPa SSE 9.7 km/h 17.7 km/h 65% 0 mm
23:24 18.2 °C 11.3 °C 999.2 hPa South 11.3 km/h 17.7 km/h 64% 0 mm
23:29 18.4 °C 11.2 °C 999.2 hPa South 11.3 km/h 32.2 km/h 63% 0 mm
23:34 18.5 °C 11.3 °C 998.9 hPa South 11.3 km/h 32.2 km/h 63% 0 mm
23:39 18.6 °C 11.2 °C 998.9 hPa South 11.3 km/h 22.5 km/h 62% 0 mm
23:44 18.6 °C 11.1 °C 998.9 hPa South 11.3 km/h 33.8 km/h 62% 0 mm
23:49 18.7 °C 11.3 °C 999.2 hPa South 11.3 km/h 33.8 km/h 62% 0 mm
23:54 18.7 °C 11.2 °C 999.2 hPa South 11.3 km/h 22.5 km/h 62% 0 mm
23:59 18.6 °C 11.2 °C 999.2 hPa South 11.3 km/h 19.3 km/h 62% 0 mm
Buffalo, New York, USA
Compliments of Weather Underground - 2.5 mb